Terminal Aerodrome Forecast
Issued by NWS

Home | Current Version | Previous Version | Graphics & Text | Print | Product List | Glossary On
Versions: 1 2 3 4 5 6 7 8 9 10 11 12 13 14 15 16 17 18
246
FTUS43 KTOP 200314 AAC
TAFFOE
TAF AMD
KFOE 200314Z 2003/2024 10014G22KT 5SM -TSRA SCT008CB OVC010
     FM200900 13008KT P6SM VCTS OVC007CB
     FM201200 25009KT P6SM BKN012=

USA.gov is the U.S. government's official web portal to all federal, state and local government web resources and services.